Time;durP1;ratioP1;P1;durP2;ratioP2;P2;SDS_P1;SDS_P2;PMS_P1;PMS_P2;Temp;Humidity;BMP_temperature;BMP_pressure;BME280_temperature;BME280_humidity;BME280_pressure;Samples;Min_cycle;Max_cycle;Signal;HPM_P1;HPM_P2
2023/03/29 00:00:50;;;;;;;9.65;5.00;;;5.70;96.10;;;;;;4998041;28;20057;-55
2023/03/29 00:03:38;;;;;;;10.23;4.72;;;5.70;95.80;;;;;;5012209;28;20116;-53
2023/03/29 00:06:24;;;;;;;8.35;4.75;;;5.70;95.80;;;;;;5007987;28;20023;-50
2023/03/29 00:09:10;;;;;;;9.40;5.18;;;5.60;95.90;;;;;;5008380;28;20038;-51
2023/03/29 00:11:56;;;;;;;9.20;5.10;;;5.50;95.90;;;;;;5007279;28;20398;-52
2023/03/29 00:14:42;;;;;;;10.40;5.13;;;5.50;96.00;;;;;;5003265;28;20037;-54
2023/03/29 00:17:28;;;;;;;7.38;4.50;;;5.50;96.10;;;;;;5009241;28;20494;-49
2023/03/29 00:20:15;;;;;;;11.63;4.78;;;5.50;96.00;;;;;;5013674;28;20121;-51
2023/03/29 00:23:01;;;;;;;10.75;4.80;;;5.50;96.00;;;;;;5011713;28;20034;-50
2023/03/29 00:25:47;;;;;;;8.88;4.70;;;5.50;96.10;;;;;;5014001;28;20117;-51
2023/03/29 00:28:33;;;;;;;9.23;4.78;;;5.50;96.10;;;;;;5012419;28;20053;-50
2023/03/29 00:31:20;;;;;;;9.77;5.05;;;5.50;96.30;;;;;;5012227;28;20053;-51
2023/03/29 00:34:06;;;;;;;7.57;4.68;;;5.40;96.20;;;;;;5011441;28;20046;-49
2023/03/29 00:36:52;;;;;;;9.95;4.70;;;5.40;96.30;;;;;;5012148;28;20510;-52
2023/03/29 00:39:40;;;;;;;9.82;5.07;;;5.40;96.70;;;;;;5011961;28;20034;-51
2023/03/29 00:42:27;;;;;;;10.95;5.15;;;5.40;96.50;;;;;;5011002;28;20095;-52
2023/03/29 00:45:24;;;;;;;8.88;5.18;;;5.40;96.30;;;;;;5011865;28;20034;-52
2023/03/29 00:48:12;;;;;;;7.85;4.45;;;5.40;96.50;;;;;;4999219;28;20502;-50
2023/03/29 00:51:02;;;;;;;9.38;4.65;;;5.40;96.50;;;;;;5011411;28;20033;-50
2023/03/29 00:53:51;;;;;;;8.88;4.90;;;5.40;96.40;;;;;;5012663;28;20056;-51
2023/03/29 00:56:39;;;;;;;11.93;5.20;;;5.40;96.40;;;;;;5011737;28;20034;-48
2023/03/29 00:59:31;;;;;;;8.85;4.60;;;5.40;96.40;;;;;;4991582;28;20089;-53
2023/03/29 01:02:21;;;;;;;10.98;5.22;;;5.40;96.60;;;;;;5005278;28;20022;-50
2023/03/29 01:05:13;;;;;;;7.85;4.72;;;5.40;96.30;;;;;;5010927;28;20113;-53
2023/03/29 01:08:24;;;;;;;10.77;5.25;;;5.30;96.50;;;;;;4999962;28;20100;-51
2023/03/29 01:11:25;;;;;;;11.32;5.05;;;5.30;96.50;;;;;;5008651;28;20032;-49
2023/03/29 01:14:30;;;;;;;12.65;5.35;;;5.20;96.60;;;;;;4991862;28;20031;-53
2023/03/29 01:17:20;;;;;;;12.95;5.35;;;5.10;96.80;;;;;;4988569;28;20034;-49
2023/03/29 01:20:42;;;;;;;12.60;5.13;;;5.00;97.00;;;;;;5005998;28;20030;-51
2023/03/29 01:23:37;;;;;;;9.38;4.97;;;5.00;97.00;;;;;;5008848;28;20030;-56
2023/03/29 01:26:32;;;;;;;9.18;4.85;;;5.00;97.00;;;;;;5003368;28;20033;-52
2023/03/29 01:30:03;;;;;;;10.13;5.55;;;5.00;97.10;;;;;;4990950;28;20491;-53
2023/03/29 01:32:55;;;;;;;8.82;5.05;;;5.10;97.20;;;;;;4959013;28;20487;-50
2023/03/29 01:35:53;;;;;;;9.70;5.22;;;5.10;97.10;;;;;;5009210;28;20018;-49
2023/03/29 01:38:51;;;;;;;11.20;4.80;;;5.10;97.00;;;;;;5000950;28;20048;-51
2023/03/29 01:41:50;;;;;;;9.20;4.90;;;5.20;96.90;;;;;;5005147;28;20957;-49
2023/03/29 01:44:44;;;;;;;11.45;5.82;;;5.20;96.90;;;;;;4993493;28;20029;-53
2023/03/29 01:47:59;;;;;;;9.48;4.97;;;5.30;96.90;;;;;;5000770;28;20106;-50
2023/03/29 01:50:53;;;;;;;9.30;5.00;;;5.20;96.80;;;;;;4991130;28;20503;-50
2023/03/29 01:53:50;;;;;;;10.00;4.80;;;5.20;96.80;;;;;;5004683;28;20034;-48
2023/03/29 01:56:40;;;;;;;9.45;4.95;;;5.30;96.70;;;;;;5009171;28;20061;-52
2023/03/29 01:59:30;;;;;;;9.48;4.70;;;5.20;96.90;;;;;;5011325;28;20034;-49
2023/03/29 02:02:18;;;;;;;6.90;4.85;;;5.20;97.00;;;;;;5009751;28;20026;-49
2023/03/29 02:05:05;;;;;;;10.82;5.47;;;5.20;96.80;;;;;;5011442;28;20128;-49
2023/03/29 02:07:52;;;;;;;9.40;5.05;;;5.10;97.10;;;;;;5006717;28;20060;-49
2023/03/29 02:10:38;;;;;;;21.77;10.40;;;5.20;97.30;;;;;;5006217;28;20018;-50
2023/03/29 02:13:24;;;;;;;10.45;5.82;;;5.20;97.00;;;;;;5006976;28;20054;-52
2023/03/29 02:16:12;;;;;;;9.00;5.22;;;5.30;97.00;;;;;;5007945;28;20041;-50
2023/03/29 02:18:58;;;;;;;10.38;4.90;;;5.20;97.30;;;;;;5006097;28;20058;-50
2023/03/29 02:21:50;;;;;;;9.07;4.68;;;5.30;97.30;;;;;;5008795;28;20022;-51
2023/03/29 02:24:39;;;;;;;8.57;4.47;;;5.30;97.20;;;;;;4993338;28;20113;-50
2023/03/29 02:27:27;;;;;;;8.05;4.43;;;5.30;97.20;;;;;;5008812;28;20076;-54
2023/03/29 02:30:17;;;;;;;12.20;5.55;;;5.30;97.10;;;;;;5009330;28;20026;-50
2023/03/29 02:33:12;;;;;;;10.60;5.13;;;5.20;97.10;;;;;;5007837;28;20557;-51
2023/03/29 02:36:08;;;;;;;9.15;5.30;;;5.20;97.30;;;;;;4994147;28;20033;-54
2023/03/29 02:38:56;;;;;;;10.23;4.68;;;5.20;97.30;;;;;;5010503;28;20026;-54
2023/03/29 02:41:46;;;;;;;8.85;4.90;;;5.20;97.20;;;;;;5006934;28;20033;-55
2023/03/29 02:44:36;;;;;;;8.05;4.70;;;5.30;97.30;;;;;;5002699;28;20073;-50
2023/03/29 02:47:30;;;;;;;10.02;5.15;;;5.30;97.20;;;;;;5006536;28;20105;-53
2023/03/29 02:50:17;;;;;;;8.73;4.90;;;5.20;97.20;;;;;;5007416;28;20026;-48
2023/03/29 02:53:18;;;;;;;7.68;4.60;;;5.20;97.20;;;;;;5009651;28;20028;-53
2023/03/29 02:56:04;;;;;;;8.90;4.45;;;5.10;97.30;;;;;;5007803;28;20030;-47
2023/03/29 02:58:50;;;;;;;8.45;4.60;;;5.10;97.60;;;;;;5007155;28;20088;-51
2023/03/29 03:01:36;;;;;;;11.55;5.45;;;5.10;97.40;;;;;;5008829;28;20030;-50
2023/03/29 03:04:22;;;;;;;10.57;4.70;;;5.20;97.40;;;;;;4994210;28;20041;-48
2023/03/29 03:07:08;;;;;;;8.45;4.90;;;5.10;97.50;;;;;;5009033;28;20157;-51
2023/03/29 03:09:54;;;;;;;9.25;4.95;;;5.10;97.70;;;;;;5008723;28;20104;-52
2023/03/29 03:12:40;;;;;;;8.20;5.43;;;5.10;97.60;;;;;;4995741;28;20025;-49
2023/03/29 03:15:26;;;;;;;8.77;4.80;;;5.20;97.50;;;;;;5008978;28;20034;-51
2023/03/29 03:18:13;;;;;;;10.30;5.75;;;5.20;97.70;;;;;;4989560;28;20034;-49
2023/03/29 03:21:03;;;;;;;10.07;6.28;;;5.20;97.60;;;;;;5000154;28;20033;-50
2023/03/29 03:23:49;;;;;;;15.32;8.45;;;5.30;97.50;;;;;;5008163;28;20045;-51
2023/03/29 03:26:37;;;;;;;10.10;5.60;;;5.20;97.70;;;;;;5009053;28;20658;-50
2023/03/29 03:29:24;;;;;;;12.63;6.35;;;5.20;97.70;;;;;;5010449;28;20026;-48
2023/03/29 03:32:11;;;;;;;9.15;5.50;;;5.10;97.90;;;;;;5010018;28;20030;-48
2023/03/29 03:34:57;;;;;;;9.95;6.15;;;5.10;97.90;;;;;;5008256;28;20030;-51
2023/03/29 03:37:44;;;;;;;11.65;6.22;;;5.10;98.00;;;;;;5009738;28;20088;-51
2023/03/29 03:40:33;;;;;;;12.23;5.70;;;5.10;98.10;;;;;;5000401;28;20510;-52
2023/03/29 03:43:19;;;;;;;11.15;5.57;;;5.20;98.00;;;;;;5010426;28;20101;-52
2023/03/29 03:46:07;;;;;;;8.48;5.65;;;5.10;98.10;;;;;;5009057;28;20045;-54
2023/03/29 03:48:53;;;;;;;11.73;5.78;;;5.10;98.20;;;;;;5012784;28;20053;-56
2023/03/29 03:51:41;;;;;;;12.23;4.75;;;5.20;98.10;;;;;;5012359;28;20030;-56
2023/03/29 03:54:27;;;;;;;11.82;5.22;;;5.20;98.20;;;;;;5012162;28;20057;-56
2023/03/29 03:57:13;;;;;;;7.75;5.38;;;5.30;98.20;;;;;;5013593;28;20021;-53
2023/03/29 03:59:59;;;;;;;7.53;4.88;;;5.30;98.00;;;;;;5012532;28;20494;-57
2023/03/29 04:02:46;;;;;;;15.13;7.13;;;5.40;98.10;;;;;;5011760;28;20045;-56
2023/03/29 04:05:32;;;;;;;11.77;5.70;;;5.40;97.90;;;;;;5012299;28;20042;-54
2023/03/29 04:08:21;;;;;;;12.98;5.65;;;5.40;98.00;;;;;;5012670;28;20372;-56
2023/03/29 04:11:07;;;;;;;8.52;5.47;;;5.40;98.10;;;;;;5015513;28;20101;-54
2023/03/29 04:13:53;;;;;;;13.85;5.72;;;5.40;98.30;;;;;;5014641;28;20034;-55
2023/03/29 04:16:39;;;;;;;9.85;5.50;;;5.40;98.50;;;;;;5013655;28;20030;-56
2023/03/29 04:19:25;;;;;;;10.15;5.70;;;5.40;98.50;;;;;;5011411;28;20498;-57
2023/03/29 04:22:11;;;;;;;11.55;6.78;;;5.40;98.60;;;;;;5011921;28;20117;-52
2023/03/29 04:24:56;;;;;;;14.25;6.45;;;5.40;98.70;;;;;;5013094;28;20030;-53
2023/03/29 04:27:43;;;;;;;12.10;6.60;;;5.50;98.50;;;;;;5013186;28;20034;-51
2023/03/29 04:30:29;;;;;;;11.90;7.35;;;5.50;98.30;;;;;;5012837;28;20023;-49
2023/03/29 04:33:16;;;;;;;12.52;7.47;;;5.50;98.30;;;;;;4995109;28;20066;-48
2023/03/29 04:36:02;;;;;;;10.50;6.30;;;5.50;98.60;;;;;;4994382;28;20030;-51
2023/03/29 04:38:51;;;;;;;12.13;7.63;;;5.40;98.50;;;;;;4988329;28;20398;-48
2023/03/29 04:41:36;;;;;;;11.45;6.80;;;5.50;98.60;;;;;;5013575;28;20030;-53
2023/03/29 04:44:22;;;;;;;12.07;6.97;;;5.40;98.70;;;;;;5015589;28;20038;-51
2023/03/29 04:47:12;;;;;;;12.20;6.60;;;5.40;98.70;;;;;;5013912;28;20022;-53
2023/03/29 04:49:58;;;;;;;11.95;6.80;;;5.40;98.70;;;;;;5005226;28;20030;-48
2023/03/29 04:52:44;;;;;;;13.65;6.55;;;5.40;98.60;;;;;;5012145;28;20022;-50
2023/03/29 04:55:30;;;;;;;11.80;6.10;;;5.40;98.70;;;;;;5012043;28;20034;-45
2023/03/29 04:58:16;;;;;;;10.65;6.78;;;5.30;98.70;;;;;;5013602;28;20123;-48
2023/03/29 05:01:02;;;;;;;13.25;6.80;;;5.30;98.80;;;;;;5012217;28;20566;-47
2023/03/29 05:03:48;;;;;;;12.93;7.25;;;5.30;98.80;;;;;;5011329;28;20061;-51
2023/03/29 05:06:35;;;;;;;10.63;5.78;;;5.30;98.90;;;;;;5011371;28;20029;-49
2023/03/29 05:09:22;;;;;;;10.75;5.90;;;5.30;98.90;;;;;;5011232;28;20014;-48
2023/03/29 05:12:08;;;;;;;12.35;6.10;;;5.30;98.90;;;;;;5011980;28;20026;-52
2023/03/29 05:14:54;;;;;;;11.13;5.88;;;5.40;98.80;;;;;;5011365;28;20034;-55
2023/03/29 05:17:40;;;;;;;8.43;5.65;;;5.40;98.80;;;;;;4992342;28;20030;-54
2023/03/29 05:20:26;;;;;;;9.65;5.10;;;5.50;98.80;;;;;;4996846;28;20034;-54
2023/03/29 05:23:12;;;;;;;11.90;5.32;;;5.60;98.60;;;;;;4995689;28;20112;-53
2023/03/29 05:25:58;;;;;;;8.23;5.20;;;5.60;98.60;;;;;;5010113;28;20030;-55
2023/03/29 05:28:44;;;;;;;8.68;5.07;;;5.60;98.70;;;;;;5012277;28;20487;-54
2023/03/29 05:31:31;;;;;;;9.50;5.13;;;5.70;98.60;;;;;;5011093;28;20030;-55
2023/03/29 05:34:17;;;;;;;16.13;5.93;;;5.70;98.60;;;;;;5011495;28;20049;-52
2023/03/29 05:37:03;;;;;;;8.27;5.60;;;5.70;98.40;;;;;;5012117;28;20026;-52
2023/03/29 05:39:49;;;;;;;7.63;5.18;;;5.80;98.40;;;;;;5013414;28;20531;-50
2023/03/29 05:42:37;;;;;;;10.55;5.93;;;5.90;99.10;;;;;;5010958;28;20042;-54
2023/03/29 05:45:23;;;;;;;10.82;5.32;;;5.90;99.30;;;;;;5012070;28;20030;-48
2023/03/29 05:48:09;;;;;;;9.25;5.70;;;5.90;99.20;;;;;;4995787;28;20114;-51
2023/03/29 05:50:56;;;;;;;10.60;5.32;;;5.90;99.20;;;;;;4994156;28;20664;-50
2023/03/29 05:53:44;;;;;;;8.02;5.35;;;6.00;99.50;;;;;;5010075;28;20033;-49
2023/03/29 05:56:30;;;;;;;8.02;5.30;;;5.90;99.10;;;;;;5009837;28;20034;-50
2023/03/29 05:59:16;;;;;;;10.93;7.35;;;6.00;98.70;;;;;;5011829;28;20038;-53
2023/03/29 06:02:03;;;;;;;12.77;6.57;;;5.90;98.80;;;;;;5010105;28;20057;-49
2023/03/29 06:04:50;;;;;;;11.32;5.93;;;6.00;99.20;;;;;;5009342;28;20053;-52
2023/03/29 06:07:37;;;;;;;9.00;5.35;;;6.00;99.50;;;;;;4995343;28;20030;-51
2023/03/29 06:10:23;;;;;;;8.95;5.85;;;6.10;99.10;;;;;;4995313;28;20030;-48
2023/03/29 06:13:09;;;;;;;11.43;5.95;;;6.10;99.20;;;;;;5009147;28;20022;-49
2023/03/29 06:15:55;;;;;;;16.33;6.30;;;6.20;98.90;;;;;;4996118;28;20077;-51
2023/03/29 06:18:41;;;;;;;11.98;5.80;;;6.20;98.70;;;;;;5010996;28;20018;-50
2023/03/29 06:21:27;;;;;;;10.70;6.32;;;6.20;98.50;;;;;;5009202;28;20507;-47
2023/03/29 06:24:13;;;;;;;11.90;5.93;;;6.30;98.30;;;;;;4990137;28;20034;-47
2023/03/29 06:26:59;;;;;;;14.55;6.13;;;6.30;98.20;;;;;;4985698;28;20018;-50
2023/03/29 06:29:46;;;;;;;10.60;5.60;;;6.30;98.30;;;;;;5011266;28;20438;-48
2023/03/29 06:32:34;;;;;;;16.08;8.15;;;6.30;98.30;;;;;;5009976;28;20025;-50
2023/03/29 06:35:20;;;;;;;21.20;8.55;;;6.30;98.20;;;;;;5007587;28;20156;-51
2023/03/29 06:38:06;;;;;;;11.43;6.85;;;6.30;98.50;;;;;;5006916;28;20034;-49
2023/03/29 06:41:01;;;;;;;16.27;6.63;;;6.30;98.20;;;;;;5010404;28;20030;-51
2023/03/29 06:43:46;;;;;;;16.38;6.30;;;6.30;98.20;;;;;;5010475;28;20049;-51
2023/03/29 06:46:32;;;;;;;9.15;6.40;;;6.30;98.40;;;;;;4994769;28;20030;-51
2023/03/29 06:49:19;;;;;;;13.45;6.45;;;6.30;98.50;;;;;;5010282;28;20018;-49
2023/03/29 06:52:05;;;;;;;15.23;6.60;;;6.30;98.60;;;;;;5010837;28;20037;-48
2023/03/29 06:54:51;;;;;;;10.35;6.43;;;6.40;98.60;;;;;;5006755;28;20096;-50
2023/03/29 06:57:38;;;;;;;9.98;6.22;;;6.30;98.90;;;;;;5011559;28;20026;-51
2023/03/29 07:00:28;;;;;;;14.35;6.88;;;6.30;99.20;;;;;;5010241;28;20033;-55
2023/03/29 07:03:19;;;;;;;12.38;7.40;;;6.30;99.40;;;;;;5010732;28;20133;-49
2023/03/29 07:06:08;;;;;;;10.55;6.72;;;6.30;99.50;;;;;;5009209;28;20037;-50
2023/03/29 07:08:58;;;;;;;10.32;7.47;;;6.40;99.60;;;;;;5008354;28;20030;-50
2023/03/29 07:11:45;;;;;;;13.77;6.90;;;6.40;99.70;;;;;;5009892;28;20105;-53
2023/03/29 07:14:31;;;;;;;13.82;7.30;;;6.40;99.70;;;;;;4991987;28;20089;-51
2023/03/29 07:17:18;;;;;;;12.70;7.30;;;6.50;99.70;;;;;;5007992;28;20065;-52
2023/03/29 07:20:08;;;;;;;12.77;7.85;;;6.50;99.80;;;;;;5011476;28;20553;-52
2023/03/29 07:22:54;;;;;;;11.95;7.53;;;6.60;99.80;;;;;;4997945;28;20057;-48
2023/03/29 07:25:40;;;;;;;10.23;7.68;;;6.70;99.70;;;;;;5012806;28;20081;-51
2023/03/29 07:28:27;;;;;;;10.05;7.30;;;6.50;99.90;;;;;;4999458;28;20104;-48
2023/03/29 07:31:14;;;;;;;15.27;7.80;;;6.50;99.90;;;;;;5000924;28;20391;-52
2023/03/29 07:34:02;;;;;;;11.88;7.65;;;6.50;99.90;;;;;;5014412;28;20044;-49
2023/03/29 07:36:48;;;;;;;9.27;7.40;;;6.50;99.90;;;;;;5014974;28;20026;-54
2023/03/29 07:39:35;;;;;;;13.68;7.55;;;6.50;99.90;;;;;;5013912;28;20057;-52
2023/03/29 07:42:21;;;;;;;10.18;7.20;;;6.60;99.90;;;;;;5012675;28;20042;-50
2023/03/29 07:45:08;;;;;;;11.00;7.07;;;6.60;99.90;;;;;;4998958;28;20042;-51
2023/03/29 07:47:58;;;;;;;11.20;7.43;;;6.50;99.90;;;;;;5002729;28;20030;-49
2023/03/29 07:50:44;;;;;;;12.18;7.28;;;6.50;99.90;;;;;;5012855;28;20049;-48
2023/03/29 07:53:31;;;;;;;10.10;7.13;;;6.60;99.90;;;;;;5012162;28;20093;-47
2023/03/29 07:56:17;;;;;;;11.50;6.90;;;6.60;99.90;;;;;;5012489;28;20042;-47
2023/03/29 07:59:03;;;;;;;11.75;7.55;;;6.60;99.90;;;;;;5012458;28;20042;-48
2023/03/29 08:01:49;;;;;;;16.63;7.82;;;6.60;99.90;;;;;;5012282;28;20026;-46
2023/03/29 08:04:35;;;;;;;20.38;9.70;;;6.80;99.90;;;;;;4995783;28;20507;-46
2023/03/29 08:07:22;;;;;;;16.38;8.00;;;6.90;99.90;;;;;;5000068;28;20093;-47
2023/03/29 08:10:14;;;;;;;16.65;7.32;;;7.00;99.90;;;;;;5012941;28;20088;-53
2023/03/29 08:13:04;;;;;;;15.52;8.32;;;7.00;99.90;;;;;;5012262;28;20041;-48
2023/03/29 08:15:50;;;;;;;10.02;6.60;;;7.00;99.90;;;;;;5012769;28;20037;-51
2023/03/29 08:18:36;;;;;;;12.32;8.00;;;7.00;99.90;;;;;;5013651;28;20065;-47
2023/03/29 08:21:22;;;;;;;13.10;7.93;;;7.00;99.90;;;;;;5013184;28;20137;-49
2023/03/29 08:24:08;;;;;;;20.58;8.25;;;7.00;99.90;;;;;;5012615;28;20036;-45
2023/03/29 08:26:54;;;;;;;10.35;7.30;;;7.00;99.90;;;;;;5011056;28;20053;-50
2023/03/29 08:29:40;;;;;;;10.05;7.18;;;7.10;99.90;;;;;;5006726;28;20518;-46
2023/03/29 08:32:26;;;;;;;9.63;7.05;;;7.10;99.90;;;;;;4988050;28;20038;-46
2023/03/29 08:35:12;;;;;;;7.82;6.90;;;7.10;99.90;;;;;;5012498;28;20030;-54
2023/03/29 08:37:58;;;;;;;9.73;6.70;;;7.20;99.90;;;;;;5012742;28;20033;-51
2023/03/29 08:40:47;;;;;;;9.35;7.03;;;7.20;99.90;;;;;;5013301;28;20038;-48
2023/03/29 08:43:56;;;;;;;10.98;7.70;;;7.30;99.90;;;;;;5011511;28;20532;-53
2023/03/29 08:46:51;;;;;;;10.10;7.80;;;7.30;99.90;;;;;;5012597;28;20065;-49
2023/03/29 08:49:40;;;;;;;9.07;7.47;;;7.30;99.90;;;;;;5012276;28;20026;-46
2023/03/29 08:52:32;;;;;;;14.40;7.60;;;7.40;99.90;;;;;;5011527;28;20499;-51
2023/03/29 08:55:40;;;;;;;8.63;7.43;;;7.50;99.90;;;;;;5011444;28;20029;-48
2023/03/29 08:58:30;;;;;;;9.80;7.13;;;7.50;99.90;;;;;;5008651;28;20053;-50
2023/03/29 09:01:16;;;;;;;10.80;7.63;;;7.60;99.90;;;;;;5002129;28;20040;-53
2023/03/29 09:04:28;;;;;;;9.00;7.32;;;7.70;99.90;;;;;;5005449;28;20435;-55
2023/03/29 09:07:15;;;;;;;11.70;7.68;;;7.60;99.90;;;;;;5005924;28;20070;-50
2023/03/29 09:10:02;;;;;;;12.27;8.32;;;7.60;99.90;;;;;;5011156;28;20022;-47
2023/03/29 09:13:09;;;;;;;12.10;7.30;;;7.40;99.90;;;;;;5009405;28;20104;-54
2023/03/29 09:16:29;;;;;;;13.70;8.45;;;7.50;99.90;;;;;;4994552;28;20389;-54
2023/03/29 09:19:45;;;;;;;11.00;7.53;;;7.60;99.90;;;;;;5010494;28;20036;-50
2023/03/29 09:22:34;;;;;;;12.32;7.97;;;7.80;99.90;;;;;;5010693;28;20033;-47
2023/03/29 09:25:24;;;;;;;11.77;7.97;;;7.90;99.90;;;;;;5010878;28;20025;-46
2023/03/29 09:28:16;;;;;;;10.65;7.78;;;7.90;99.90;;;;;;5006387;28;20057;-46
2023/03/29 09:31:11;;;;;;;11.60;9.32;;;8.10;99.90;;;;;;5010031;28;20060;-49
2023/03/29 09:34:47;;;;;;;10.33;8.03;;;8.30;99.90;;;;;;5008501;28;20053;-51
2023/03/29 09:37:37;;;;;;;12.70;7.60;;;8.40;99.90;;;;;;5008741;28;20877;-55
2023/03/29 09:40:37;;;;;;;12.55;7.18;;;8.50;99.90;;;;;;5012012;28;20026;-48
2023/03/29 09:43:40;;;;;;;13.98;7.63;;;8.60;99.90;;;;;;4994889;28;20094;-48
2023/03/29 09:46:35;;;;;;;10.57;7.78;;;8.50;99.80;;;;;;5006819;28;20014;-48
2023/03/29 09:49:27;;;;;;;11.00;7.32;;;8.50;99.90;;;;;;5011357;28;20022;-47
2023/03/29 09:52:15;;;;;;;11.73;8.40;;;8.70;99.90;;;;;;5009433;28;20050;-49
2023/03/29 09:55:02;;;;;;;14.88;8.02;;;8.70;99.70;;;;;;5008151;28;20031;-53
2023/03/29 09:57:49;;;;;;;10.70;8.55;;;8.80;99.80;;;;;;5010176;28;20037;-53
2023/03/29 10:00:35;;;;;;;13.43;8.18;;;8.90;99.40;;;;;;5007947;28;20038;-48
2023/03/29 10:03:24;;;;;;;14.00;8.30;;;8.90;99.30;;;;;;5009835;28;20096;-49
2023/03/29 10:06:11;;;;;;;10.02;8.48;;;9.00;99.50;;;;;;5010235;28;20105;-53
2023/03/29 10:08:58;;;;;;;8.40;7.28;;;9.00;99.40;;;;;;4991764;28;20030;-51
2023/03/29 10:11:57;;;;;;;9.63;7.90;;;9.00;99.40;;;;;;5013056;28;20030;-49
2023/03/29 10:14:53;;;;;;;10.27;8.65;;;9.00;99.40;;;;;;5010681;28;20021;-53
2023/03/29 10:17:39;;;;;;;11.73;9.25;;;9.00;99.50;;;;;;5010353;28;20065;-54
2023/03/29 10:20:26;;;;;;;13.68;8.38;;;9.00;99.50;;;;;;4995902;28;20116;-54
2023/03/29 10:23:17;;;;;;;14.73;8.18;;;9.10;99.90;;;;;;5009912;28;20541;-50
2023/03/29 10:26:06;;;;;;;17.63;8.95;;;9.30;99.90;;;;;;5007631;28;20034;-50
2023/03/29 10:28:55;;;;;;;12.60;9.40;;;9.50;99.90;;;;;;5009691;28;20033;-49
2023/03/29 10:31:42;;;;;;;13.35;8.38;;;9.70;98.80;;;;;;5008969;28;20433;-53
2023/03/29 10:34:28;;;;;;;10.77;8.75;;;9.80;99.90;;;;;;5007629;28;20092;-56
2023/03/29 10:37:18;;;;;;;9.68;8.35;;;9.90;98.50;;;;;;5024546;28;21415;-52
2023/03/29 10:40:05;;;;;;;12.15;8.57;;;9.70;98.90;;;;;;5013656;28;20041;-57
2023/03/29 10:42:56;;;;;;;12.07;8.82;;;9.80;99.10;;;;;;5006992;28;20034;-51
2023/03/29 10:45:46;;;;;;;11.40;8.40;;;9.90;98.90;;;;;;5018857;28;20447;-52
2023/03/29 10:48:34;;;;;;;9.82;7.88;;;9.80;98.90;;;;;;5011594;28;20454;-53
2023/03/29 10:51:23;;;;;;;10.52;7.95;;;10.00;99.10;;;;;;5015267;28;20026;-53
2023/03/29 10:54:18;;;;;;;11.07;7.93;;;10.20;99.00;;;;;;5013199;28;20064;-51
2023/03/29 10:57:09;;;;;;;10.70;7.55;;;10.30;98.50;;;;;;5020736;28;20030;-52
2023/03/29 11:00:41;;;;;;;12.05;7.75;;;10.40;98.10;;;;;;5012688;28;20189;-50
2023/03/29 11:03:49;;;;;;;10.85;7.75;;;10.50;97.60;;;;;;5014974;28;20486;-54
2023/03/29 11:06:46;;;;;;;9.80;7.43;;;10.60;97.50;;;;;;5013025;28;20702;-57
2023/03/29 11:09:47;;;;;;;9.02;6.85;;;10.50;96.90;;;;;;4999435;28;20018;-54
2023/03/29 11:12:41;;;;;;;7.57;5.90;;;10.50;96.90;;;;;;5014196;28;20052;-55
2023/03/29 11:15:42;;;;;;;10.63;6.20;;;10.40;96.90;;;;;;5013958;28;20513;-50
2023/03/29 11:19:05;;;;;;;8.60;6.38;;;10.50;97.10;;;;;;5013304;28;20038;-46
2023/03/29 11:22:03;;;;;;;8.35;6.68;;;10.40;96.90;;;;;;5013000;28;20026;-48
2023/03/29 11:25:04;;;;;;;9.32;6.45;;;10.60;97.20;;;;;;5013813;28;20033;-51
2023/03/29 11:28:05;;;;;;;9.70;6.50;;;10.80;97.20;;;;;;5012880;28;20045;-49
2023/03/29 11:31:35;;;;;;;8.82;6.55;;;10.70;96.90;;;;;;5014107;28;20022;-46
2023/03/29 11:34:26;;;;;;;11.90;7.90;;;10.40;97.50;;;;;;4989556;28;20033;-53
2023/03/29 11:37:21;;;;;;;8.63;6.50;;;10.40;97.40;;;;;;5006755;28;20037;-49
2023/03/29 11:40:45;;;;;;;9.88;7.22;;;10.60;97.30;;;;;;5013051;28;20737;-53
2023/03/29 11:43:43;;;;;;;9.05;6.13;;;10.70;97.10;;;;;;5018642;28;20030;-50
2023/03/29 11:46:38;;;;;;;12.30;6.55;;;10.70;97.30;;;;;;5032486;28;20021;-51
2023/03/29 11:49:30;;;;;;;9.68;6.80;;;10.90;97.00;;;;;;5033493;28;20024;-51
2023/03/29 11:52:49;;;;;;;8.38;6.03;;;10.60;96.60;;;;;;5025705;28;20072;-48
2023/03/29 11:55:38;;;;;;;9.38;6.35;;;10.60;97.00;;;;;;5005891;28;20028;-52
2023/03/29 11:58:33;;;;;;;8.00;6.00;;;10.80;97.00;;;;;;5000634;28;20030;-52
2023/03/29 12:01:34;;;;;;;6.72;6.00;;;10.80;97.30;;;;;;5012144;28;20084;-53
2023/03/29 12:04:30;;;;;;;9.32;6.45;;;10.70;97.30;;;;;;4993992;28;20040;-56
2023/03/29 12:07:34;;;;;;;8.15;6.00;;;10.70;97.80;;;;;;4992035;28;20160;-55
2023/03/29 12:10:25;;;;;;;7.13;6.18;;;10.90;97.70;;;;;;5025731;28;20014;-53
2023/03/29 12:13:22;;;;;;;6.82;5.60;;;10.90;97.30;;;;;;5013546;28;20018;-56
2023/03/29 12:16:24;;;;;;;10.32;6.70;;;10.90;97.50;;;;;;5013187;28;20109;-58
2023/03/29 12:19:21;;;;;;;7.55;6.18;;;11.00;97.80;;;;;;5014517;28;20022;-55
2023/03/29 12:22:08;;;;;;;7.53;6.00;;;11.10;97.70;;;;;;5008447;28;20026;-56
2023/03/29 12:24:56;;;;;;;8.35;6.30;;;11.20;98.30;;;;;;5011642;28;20157;-55
2023/03/29 12:28:16;;;;;;;10.05;6.75;;;11.50;98.00;;;;;;4998372;28;20026;-55
2023/03/29 12:31:10;;;;;;;12.20;6.80;;;11.60;97.60;;;;;;5001468;28;20026;-57
2023/03/29 12:34:20;;;;;;;7.35;5.40;;;11.70;96.80;;;;;;4992798;28;20058;-57
2023/03/29 12:37:36;;;;;;;9.15;6.50;;;11.50;97.10;;;;;;5006752;28;20022;-55
2023/03/29 12:40:26;;;;;;;8.35;6.10;;;11.70;97.20;;;;;;5013637;28;20026;-54
2023/03/29 12:43:42;;;;;;;8.20;6.25;;;11.80;96.80;;;;;;5011556;28;20502;-54
2023/03/29 12:46:32;;;;;;;9.80;7.13;;;11.80;96.70;;;;;;5011758;28;20037;-55
2023/03/29 12:49:34;;;;;;;7.82;6.55;;;11.80;96.30;;;;;;5002592;28;20019;-51
2023/03/29 12:52:30;;;;;;;7.95;6.05;;;11.80;96.50;;;;;;4991200;28;20468;-54
2023/03/29 12:55:28;;;;;;;8.82;6.47;;;11.90;96.60;;;;;;5009538;28;20038;-53
2023/03/29 12:58:24;;;;;;;9.27;6.03;;;12.10;96.30;;;;;;5012433;28;20026;-53
2023/03/29 13:01:32;;;;;;;8.65;5.90;;;12.10;96.50;;;;;;4997362;28;20037;-52
2023/03/29 13:04:19;;;;;;;11.35;6.05;;;12.10;96.90;;;;;;5001111;28;20038;-50
2023/03/29 13:07:26;;;;;;;8.88;6.43;;;12.30;96.70;;;;;;5009684;28;20026;-55
2023/03/29 13:10:40;;;;;;;7.43;5.65;;;12.40;96.60;;;;;;5005757;28;20025;-55
2023/03/29 13:13:31;;;;;;;9.45;5.50;;;12.60;96.30;;;;;;5010691;28;20065;-50
2023/03/29 13:16:20;;;;;;;6.20;4.70;;;12.60;96.50;;;;;;5012605;28;20022;-54
2023/03/29 13:19:15;;;;;;;6.47;5.03;;;12.70;96.80;;;;;;4977719;28;20026;-49
2023/03/29 13:22:15;;;;;;;7.93;5.35;;;12.80;96.40;;;;;;4996925;28;20525;-52
2023/03/29 13:25:18;;;;;;;5.88;5.15;;;13.00;96.00;;;;;;5008106;28;20034;-54
2023/03/29 13:28:36;;;;;;;8.18;5.18;;;13.00;96.10;;;;;;5001768;28;20403;-48
2023/03/29 13:31:53;;;;;;;7.65;4.88;;;13.00;96.40;;;;;;5000663;28;20022;-54
2023/03/29 13:34:44;;;;;;;7.95;5.18;;;13.10;96.50;;;;;;5012487;28;20497;-53
2023/03/29 13:37:51;;;;;;;7.53;4.80;;;13.20;96.20;;;;;;5005553;28;20033;-55
2023/03/29 13:40:41;;;;;;;7.97;5.18;;;13.40;95.80;;;;;;4992476;28;20031;-56
2023/03/29 13:43:44;;;;;;;8.07;5.53;;;13.40;95.80;;;;;;4991396;28;20637;-54
2023/03/29 13:46:41;;;;;;;7.68;5.50;;;13.10;96.20;;;;;;5010870;28;20030;-52
2023/03/29 13:49:30;;;;;;;6.85;5.40;;;13.20;96.40;;;;;;4980755;28;20031;-49
2023/03/29 13:52:38;;;;;;;5.90;4.50;;;13.00;96.60;;;;;;5010318;28;20030;-52
2023/03/29 13:55:29;;;;;;;7.10;5.40;;;13.10;96.70;;;;;;5002548;28;20029;-51
2023/03/29 13:58:43;;;;;;;6.60;5.20;;;13.20;97.00;;;;;;4998307;28;20154;-52
2023/03/29 14:01:42;;;;;;;10.30;5.93;;;13.10;97.10;;;;;;5003400;28;20041;-52
2023/03/29 14:04:43;;;;;;;6.18;5.13;;;13.20;96.90;;;;;;4998908;28;20030;-50
2023/03/29 14:07:32;;;;;;;7.60;5.43;;;13.20;97.00;;;;;;4993943;28;20037;-53
2023/03/29 14:10:26;;;;;;;7.30;4.78;;;13.20;97.10;;;;;;4996251;28;20041;-51
2023/03/29 14:13:13;;;;;;;7.13;5.72;;;13.30;97.00;;;;;;4995846;28;20075;-55
2023/03/29 14:16:10;;;;;;;10.77;4.75;;;13.20;97.20;;;;;;5009084;28;20030;-55
2023/03/29 14:19:04;;;;;;;10.52;4.70;;;13.20;97.30;;;;;;5001731;28;20061;-57
2023/03/29 14:21:52;;;;;;;10.45;5.25;;;13.10;97.20;;;;;;5008553;28;20030;-53
2023/03/29 14:24:43;;;;;;;4.88;4.05;;;13.20;97.40;;;;;;5012010;28;20030;-52
2023/03/29 14:27:30;;;;;;;6.72;4.47;;;13.20;97.40;;;;;;5010284;28;20743;-51
2023/03/29 14:30:27;;;;;;;6.78;4.95;;;13.30;97.40;;;;;;5005435;28;20034;-55
2023/03/29 14:33:13;;;;;;;8.32;4.90;;;13.40;97.40;;;;;;4989075;28;20049;-52
2023/03/29 14:36:04;;;;;;;6.00;4.70;;;13.60;97.20;;;;;;5005994;28;20048;-57
2023/03/29 14:38:52;;;;;;;6.47;4.70;;;13.90;96.70;;;;;;4995771;28;20036;-55
2023/03/29 14:41:41;;;;;;;10.35;5.10;;;14.10;96.30;;;;;;4991028;28;20104;-56
2023/03/29 14:44:33;;;;;;;6.28;4.60;;;14.10;96.00;;;;;;5006188;28;20065;-55
2023/03/29 14:47:28;;;;;;;7.72;4.60;;;14.30;95.80;;;;;;5011472;28;20029;-56
2023/03/29 14:50:24;;;;;;;5.32;4.43;;;14.50;95.60;;;;;;5012496;28;20064;-51
2023/03/29 14:53:18;;;;;;;6.18;4.60;;;14.40;95.80;;;;;;4991163;28;20388;-56
2023/03/29 14:56:06;;;;;;;7.47;4.95;;;14.40;95.90;;;;;;4992052;28;20031;-56